.
WxDataArchive / Data Records for 2010-12-31
2010-12-30 December 2010 2011-01-01

Data Records for Friday, 31 December 2010

Time	Temp	Chill	HIndex	Humid	Dewpt	 Wind 	HiWind	WindDir	Rain 	Barom 
-----	----	-----	------	-----	-----	------	------	-------	-----	----- 
00:00	46.2	46.2	46.2	75	38.7	1	5	90	0.00	29.854 
00:05	46.4	46.4	46.4	75	38.9	1	3	90	0.00	29.854 
00:10	46.4	46.4	46.4	75	38.9	2	5	112	0.00	29.854 
00:15	46.5	46.5	46.5	75	39.0	1	5	90	0.00	29.844 
00:20	46.7	46.7	46.7	75	39.2	1	3	68	0.00	29.844 
00:25	46.7	46.7	46.7	74	38.9	2	4	90	0.00	29.844 
00:30	46.8	46.8	46.8	74	39.0	1	6	90	0.00	29.841 
00:35	46.8	46.8	46.8	74	39.0	1	4	90	0.00	29.841 
00:40	46.8	46.8	46.8	74	39.0	1	4	90	0.00	29.841 
00:45	46.8	46.8	46.8	74	39.0	1	5	270	0.00	29.839 
00:50	46.8	46.8	46.8	74	39.0	1	4	112	0.00	29.839 
00:55	46.8	46.8	46.8	74	39.0	1	4	338	0.00	29.839 
01:00	46.8	46.8	46.8	74	39.0	1	4	292	0.00	29.842 
01:05	46.8	46.8	46.8	74	39.0	1	4	292	0.00	29.842 
01:10	46.8	46.8	46.8	74	39.0	1	3	248	0.00	29.842 
01:15	46.8	46.8	46.8	75	39.3	1	5	248	0.00	29.849 
01:20	46.8	46.8	46.8	75	39.3	0	3	112	0.00	29.849 
01:25	46.8	46.8	46.8	75	39.3	1	4	248	0.00	29.849 
01:30	47.0	47.0	47.0	75	39.5	1	3	248	0.00	29.854 
01:35	46.8	46.8	46.8	75	39.3	0	3	248	0.00	29.854 
01:40	46.8	46.8	46.8	75	39.3	1	5	248	0.00	29.854 
01:45	46.7	46.7	46.7	75	39.2	0	5	248	0.00	29.858 
01:50	46.5	46.5	46.5	76	39.3	0	2	68	0.00	29.858 
01:55	46.2	46.2	46.2	76	39.1	0	1	68	0.00	29.858 
02:00	46.1	46.1	46.1	77	39.3	0	2	68	0.00	29.858 
02:05	46.0	46.0	46.0	77	39.2	0	2	68	0.00	29.858 
02:10	46.1	46.1	46.1	77	39.3	0	2	45	0.00	29.858 
02:15	46.1	46.1	46.1	77	39.3	0	1	225	0.00	29.872 
02:20	46.2	46.2	46.2	77	39.4	0	2	225	0.00	29.872 
02:25	46.2	46.2	46.2	77	39.4	0	3	90	0.00	29.872 
02:30	46.2	46.2	46.2	77	39.4	0	1	90	0.00	29.871 
02:35	46.2	46.2	46.2	77	39.4	0	2	90	0.00	29.871 
02:40	46.2	46.2	46.2	77	39.4	1	3	90	0.00	29.871 
02:45	46.2	46.2	46.2	77	39.4	0	2	90	0.00	29.871 
02:50	46.1	46.1	46.1	77	39.3	0	3	90	0.00	29.871 
02:55	45.8	45.8	45.8	77	39.0	0	1	90	0.00	29.871 
03:00	45.7	45.7	45.7	78	39.2	0	1	90	0.00	29.880 
03:05	45.7	45.7	45.7	79	39.6	0	1	90	0.00	29.880 
03:10	45.7	45.7	45.7	79	39.6	0	1	90	0.00	29.880 
03:15	45.8	45.8	45.8	79	39.7	0	1	90	0.00	29.881 
03:20	45.8	45.8	45.8	79	39.7	0	1	90	0.00	29.881 
03:25	46.0	46.0	46.0	79	39.9	0	1	90	0.00	29.881 
03:30	46.0	46.0	46.0	79	39.9	0	1	90	0.00	29.886 
03:35	46.0	46.0	46.0	79	39.9	0	1	90	0.00	29.886 
03:40	46.0	46.0	46.0	79	39.9	0	1	90	0.00	29.886 
03:45	46.1	46.1	46.1	79	40.0	0	1	90	0.00	29.881 
03:50	46.1	46.1	46.1	79	40.0	0	0	---	0.00	29.881 
03:55	46.1	46.1	46.1	79	40.0	0	1	90	0.00	29.881 
04:00	46.1	46.1	46.1	79	40.0	1	3	90	0.00	29.876 
04:05	46.2	46.2	46.2	78	39.7	0	3	90	0.00	29.876 
04:10	46.4	46.4	46.4	78	39.9	1	4	90	0.00	29.876 
04:15	46.4	46.4	46.4	78	39.9	1	4	90	0.00	29.870 
04:20	46.4	46.4	46.4	78	39.9	1	4	90	0.00	29.870 
04:25	46.4	46.4	46.4	78	39.9	0	3	90	0.00	29.870 
04:30	46.2	46.2	46.2	79	40.1	1	6	90	0.00	29.859 
04:35	46.2	46.2	46.2	79	40.1	1	5	68	0.00	29.859 
04:40	46.2	46.2	46.2	79	40.1	0	2	90	0.00	29.859 
04:45	46.1	46.1	46.1	79	40.0	0	2	248	0.00	29.870 
04:50	46.0	46.0	46.0	80	40.2	0	2	248	0.00	29.870 
04:55	45.8	45.8	45.8	80	40.0	0	1	248	0.00	29.870 
05:00	45.8	45.8	45.8	81	40.3	0	2	248	0.00	29.872 
05:05	46.1	46.1	46.1	81	40.6	0	2	248	0.00	29.872 
05:10	46.2	46.2	46.2	81	40.7	0	2	248	0.00	29.872 
05:15	46.5	46.5	46.5	81	41.0	0	2	225	0.00	29.880 
05:20	46.7	46.7	46.7	81	41.2	0	2	225	0.00	29.880 
05:25	46.7	46.7	46.7	81	41.2	0	3	225	0.00	29.880 
05:30	46.8	46.8	46.8	81	41.3	0	2	270	0.00	29.873 
05:35	46.8	46.8	46.8	81	41.3	0	4	90	0.00	29.873 
05:40	46.8	46.8	46.8	80	41.0	0	3	0	0.00	29.873 
05:45	46.8	46.8	46.8	80	41.0	1	4	338	0.00	29.873 
05:50	46.8	46.8	46.8	81	41.3	0	2	338	0.00	29.873 
05:55	46.8	46.8	46.8	81	41.3	0	3	338	0.00	29.873 
06:00	46.8	46.8	46.8	81	41.3	0	2	112	0.00	29.875 
06:05	46.8	46.8	46.8	81	41.3	1	5	90	0.00	29.875 
06:10	46.8	46.8	46.8	81	41.3	0	4	90	0.00	29.875 
06:15	46.8	46.8	46.8	81	41.3	0	1	270	0.00	29.882 
06:20	46.8	46.8	46.8	81	41.3	1	4	270	0.00	29.882 
06:25	46.8	46.8	46.8	82	41.6	0	3	90	0.00	29.882 
06:30	47.0	47.0	47.0	82	41.8	1	5	112	0.00	29.887 
06:35	47.0	47.0	47.0	82	41.8	1	3	112	0.00	29.887 
06:40	47.0	47.0	47.0	82	41.8	0	3	112	0.00	29.887 
06:45	47.0	47.0	47.0	82	41.8	0	2	292	0.00	29.890 
06:50	47.0	47.0	47.0	82	41.8	0	2	292	0.00	29.890 
06:55	47.0	47.0	47.0	82	41.8	0	1	292	0.00	29.890 
07:00	47.0	47.0	47.0	83	42.1	0	1	292	0.00	29.889 
07:05	47.0	47.0	47.0	83	42.1	1	3	315	0.00	29.889 
07:10	47.0	47.0	47.0	83	42.1	1	3	90	0.00	29.889 
07:15	47.1	47.1	47.1	83	42.2	1	4	112	0.00	29.884 
07:20	47.1	47.1	47.1	83	42.2	1	3	68	0.00	29.884 
07:25	47.1	47.1	47.1	83	42.2	1	3	112	0.00	29.884 
07:30	47.1	47.1	47.1	83	42.2	0	1	112	0.00	29.888 
07:35	47.1	47.1	47.1	84	42.5	0	2	112	0.00	29.888 
07:40	47.1	47.1	47.1	84	42.5	0	1	112	0.00	29.888 
07:45	47.1	47.1	47.1	84	42.5	1	2	112	0.00	29.889 
07:50	47.1	47.1	47.1	84	42.5	0	3	112	0.00	29.889 
07:55	47.3	47.3	47.3	84	42.7	1	3	112	0.00	29.889 
08:00	47.3	47.3	47.3	84	42.7	1	3	112	0.00	29.888 
08:05	47.4	47.4	47.4	84	42.8	1	5	112	0.00	29.888 
08:10	47.4	47.4	47.4	85	43.1	1	4	90	0.00	29.888 
08:15	47.4	47.4	47.4	85	43.1	1	3	112	0.00	29.880 
08:20	47.6	47.6	47.6	85	43.3	2	5	68	0.00	29.880 
08:25	47.7	47.7	47.7	85	43.4	2	6	112	0.00	29.880 
08:30	47.9	47.9	47.9	85	43.6	2	6	68	0.00	29.879 
08:35	48.0	48.0	48.0	85	43.7	1	5	112	0.00	29.879 
08:40	48.0	48.0	48.0	85	43.7	2	5	90	0.00	29.879 
08:45	48.2	48.2	48.2	84	43.6	2	7	90	0.00	29.872 
08:50	48.3	48.3	48.3	84	43.7	2	5	68	0.00	29.872 
08:55	48.3	48.3	48.3	84	43.7	2	7	68	0.00	29.872 
09:00	48.3	48.3	48.3	84	43.7	2	5	112	0.00	29.873 
09:05	48.3	48.3	48.3	84	43.7	3	9	90	0.00	29.873 
09:10	48.3	48.3	48.3	84	43.7	2	4	112	0.00	29.873 
09:15	48.3	48.3	48.3	84	43.7	2	4	112	0.00	29.871 
09:20	48.2	48.2	48.2	84	43.6	1	3	135	0.00	29.871 
09:25	48.2	48.2	48.2	84	43.6	2	5	112	0.00	29.871 
09:30	48.3	48.3	48.3	84	43.7	1	4	90	0.00	29.869 
09:35	48.3	48.3	48.3	83	43.4	1	4	90	0.00	29.869 
09:40	48.5	48.5	48.5	83	43.6	1	6	112	0.00	29.869 
09:45	48.5	48.5	48.5	83	43.6	2	9	90	0.00	29.865 
09:50	48.6	48.6	48.6	83	43.7	1	4	90	0.00	29.865 
09:55	48.8	48.8	48.8	83	43.9	1	4	158	0.00	29.865 
10:00	49.2	49.2	49.2	83	44.3	1	7	90	0.00	29.867 
10:05	49.5	49.5	49.5	82	44.2	1	3	90	0.00	29.867 
10:10	49.8	49.8	49.8	82	44.5	1	7	90	0.00	29.867 
10:15	49.8	49.8	49.8	82	44.5	2	7	90	0.00	29.866 
10:20	50.1	50.1	50.1	82	44.8	3	7	90	0.00	29.866 
10:25	50.7	50.7	50.7	81	45.1	3	9	90	0.00	29.866 
10:30	51.1	51.1	51.1	81	45.5	2	6	112	0.00	29.856 
10:35	51.6	51.6	51.6	80	45.6	3	9	112	0.00	29.856 
10:40	52.0	52.0	52.0	80	46.0	2	8	90	0.00	29.856 
10:45	52.5	52.5	52.5	79	46.2	3	9	90	0.00	29.860 
10:50	52.5	52.5	52.5	79	46.2	3	6	90	0.00	29.860 
10:55	52.5	52.5	52.5	80	46.5	1	4	90	0.00	29.860 
11:00	52.5	52.5	52.5	80	46.5	2	5	112	0.00	29.865 
11:05	52.5	52.5	52.5	81	46.8	1	6	90	0.00	29.865 
11:10	52.5	52.5	52.5	81	46.8	1	5	248	0.00	29.865 
11:15	52.3	52.3	52.3	82	47.0	1	3	248	0.00	29.870 
11:20	52.2	52.2	52.2	83	47.2	1	4	90	0.00	29.870 
11:25	51.9	51.9	51.9	84	47.2	1	6	112	0.01	29.870 
11:30	51.7	51.7	51.7	85	47.3	1	3	90	0.00	29.874 
11:35	51.6	51.6	51.6	86	47.5	1	7	112	0.00	29.874 
11:40	51.3	51.3	51.3	87	47.6	1	5	315	0.04	29.874 
11:45	51.1	51.1	51.1	88	47.7	1	3	90	0.06	29.878 
11:50	51.0	51.0	51.0	93	49.0	3	6	90	0.00	29.878 
11:55	51.0	51.0	51.0	91	48.5	2	7	112	0.00	29.878 
12:00	51.0	51.0	51.0	91	48.5	1	3	112	0.00	29.851 
12:05	51.1	51.1	51.1	91	48.6	1	4	338	0.00	29.851 
12:10	51.1	51.1	51.1	92	48.9	0	3	338	0.00	29.851 
12:15	51.3	51.3	51.3	92	49.1	1	3	338	0.00	29.848 
12:20	51.1	51.1	51.1	92	48.9	1	4	90	0.00	29.848 
12:25	51.1	51.1	51.1	92	48.9	1	4	135	0.00	29.848 
12:30	51.3	51.3	51.3	92	49.1	1	6	68	0.00	29.845 
12:35	51.4	51.4	51.4	92	49.2	1	6	90	0.00	29.845 
12:40	51.6	51.6	51.6	92	49.4	1	3	90	0.00	29.845 
12:45	51.9	51.9	51.9	92	49.6	0	3	90	0.00	29.837 
12:50	52.2	52.2	52.2	92	49.9	1	5	135	0.00	29.837 
12:55	52.6	52.6	52.6	92	50.3	1	5	112	0.00	29.837 
13:00	52.9	52.9	52.9	91	50.3	1	4	68	0.00	29.830 
13:05	53.2	53.2	53.2	90	50.3	0	3	45	0.00	29.830 
13:10	53.2	53.2	53.2	90	50.3	1	3	45	0.00	29.830 
13:15	53.3	53.3	53.3	90	50.4	0	3	225	0.00	29.836 
13:20	53.5	53.5	53.5	90	50.6	0	3	225	0.00	29.836 
13:25	53.6	53.6	53.6	90	50.7	0	2	45	0.00	29.836 
13:30	53.8	53.8	53.8	89	50.6	0	2	45	0.00	29.834 
13:35	53.9	53.9	53.9	89	50.7	0	2	202	0.00	29.834 
13:40	54.1	54.1	54.1	89	50.9	0	3	90	0.00	29.834 
13:45	54.1	54.1	54.1	89	50.9	1	3	90	0.00	29.831 
13:50	54.2	54.2	54.2	89	51.0	0	5	248	0.00	29.831 
13:55	54.2	54.2	54.2	88	50.7	1	6	248	0.00	29.831 
14:00	54.4	54.4	54.4	88	50.9	0	3	315	0.00	29.828 
14:05	54.5	54.5	54.5	88	51.0	0	3	248	0.00	29.828 
14:10	55.0	55.0	55.0	87	51.2	1	5	248	0.00	29.828 
14:15	55.4	55.4	55.4	86	51.3	1	4	248	0.00	29.825 
14:20	55.9	55.9	55.9	85	51.5	1	3	270	0.00	29.825 
14:25	56.3	56.3	56.3	84	51.5	1	5	248	0.00	29.825 
14:30	57.0	57.0	57.0	82	51.6	2	9	225	0.00	29.822 
14:35	57.6	57.6	57.6	80	51.5	3	11	270	0.00	29.822 
14:40	57.8	57.8	57.8	79	51.3	2	5	270	0.00	29.822 
14:45	57.8	57.8	57.8	78	51.0	2	7	248	0.00	29.817 
14:50	57.8	57.8	57.8	78	51.0	3	10	270	0.00	29.817 
14:55	57.8	57.8	57.8	78	51.0	2	6	248	0.00	29.817 
15:00	57.8	57.8	57.8	78	51.0	2	9	112	0.00	29.824 
15:05	57.6	57.6	57.6	77	50.4	2	6	270	0.00	29.824 
15:10	57.6	57.6	57.6	78	50.8	2	7	22	0.00	29.824 
15:15	57.5	57.5	57.5	79	51.0	1	4	68	0.00	29.819 
15:20	57.6	57.6	57.6	78	50.8	3	7	270	0.00	29.819 
15:25	57.8	57.8	57.8	77	50.6	1	9	248	0.00	29.819 
15:30	57.8	57.8	57.8	77	50.6	1	6	270	0.00	29.826 
15:35	57.8	57.8	57.8	77	50.6	1	4	248	0.00	29.826 
15:40	57.8	57.8	57.8	77	50.6	2	6	248	0.00	29.826 
15:45	57.8	57.8	57.8	77	50.6	2	7	248	0.00	29.829 
15:50	57.8	57.8	57.8	77	50.6	1	6	270	0.00	29.829 
15:55	57.8	57.8	57.8	77	50.6	2	7	248	0.00	29.829 
16:00	57.8	57.8	57.8	76	50.3	3	7	248	0.00	29.843 
16:05	57.8	57.8	57.8	77	50.6	2	7	248	0.00	29.843 
16:10	57.8	57.8	57.8	77	50.6	2	6	225	0.00	29.843 
16:15	57.8	57.8	57.8	77	50.6	1	9	248	0.00	29.834 
16:20	57.8	57.8	57.8	77	50.6	2	10	248	0.00	29.834 
16:25	57.8	57.8	57.8	77	50.6	1	4	22	0.00	29.834 
16:30	57.8	57.8	57.8	77	50.6	2	6	248	0.00	29.835 
16:35	57.8	57.8	57.8	77	50.6	1	4	45	0.00	29.835 
16:40	57.8	57.8	57.8	77	50.6	1	3	248	0.00	29.835 
16:45	57.8	57.8	57.8	77	50.6	1	5	248	0.00	29.840 
16:50	57.8	57.8	57.8	77	50.6	1	5	90	0.00	29.840 
16:55	57.8	57.8	57.8	77	50.6	2	7	248	0.00	29.840 
17:00	58.0	58.0	58.0	77	50.8	1	3	248	0.00	29.843 
17:05	58.0	58.0	58.0	77	50.8	1	3	248	0.00	29.843 
17:10	58.0	58.0	58.0	77	50.8	1	3	225	0.00	29.843 
17:15	58.0	58.0	58.0	77	50.8	1	6	270	0.00	29.844 
17:20	58.0	58.0	58.0	77	50.8	1	5	292	0.00	29.844 
17:25	58.0	58.0	58.0	77	50.8	1	3	338	0.00	29.844 
17:30	57.8	57.8	57.8	77	50.6	1	5	248	0.00	29.845 
17:35	57.8	57.8	57.8	77	50.6	1	3	68	0.00	29.845 
17:40	57.8	57.8	57.8	78	51.0	0	2	68	0.00	29.845 
17:45	57.6	57.6	57.6	78	50.8	1	4	248	0.00	29.852 
17:50	57.8	57.8	57.8	77	50.6	0	3	292	0.00	29.852 
17:55	57.6	57.6	57.6	78	50.8	0	2	248	0.00	29.852 
18:00	57.5	57.5	57.5	78	50.7	1	2	22	0.00	29.855 
18:05	57.5	57.5	57.5	78	50.7	1	4	68	0.00	29.855 
18:10	57.3	57.3	57.3	78	50.5	1	4	225	0.00	29.855 
18:15	57.3	57.3	57.3	79	50.8	1	3	90	0.00	29.855 
18:20	57.0	57.0	57.0	80	50.9	1	5	90	0.00	29.855 
18:25	56.9	56.9	56.9	81	51.1	1	3	90	0.00	29.855 
18:30	56.7	56.7	56.7	81	50.9	1	3	90	0.00	29.856 
18:35	56.7	56.7	56.7	81	50.9	0	3	248	0.00	29.856 
18:40	56.7	56.7	56.7	82	51.3	1	5	90	0.00	29.856 
18:45	56.6	56.6	56.6	82	51.2	0	3	90	0.00	29.855 
18:50	56.5	56.5	56.5	82	51.1	1	4	90	0.00	29.855 
18:55	56.5	56.5	56.5	82	51.1	1	3	68	0.00	29.855 
19:00	56.5	56.5	56.5	82	51.1	1	3	270	0.00	29.857 
19:05	56.6	56.6	56.6	82	51.2	0	3	90	0.00	29.857 
19:10	56.7	56.7	56.7	81	50.9	1	3	45	0.00	29.857 
19:15	56.7	56.7	56.7	81	50.9	0	3	45	0.00	29.852 
19:20	56.9	56.9	56.9	81	51.1	1	5	45	0.00	29.852 
19:25	57.0	57.0	57.0	80	50.9	1	3	90	0.00	29.852 
19:30	57.0	57.0	57.0	80	50.9	1	4	90	0.00	29.847 
19:35	57.0	57.0	57.0	80	50.9	1	3	338	0.00	29.847 
19:40	57.0	57.0	57.0	79	50.5	1	4	0	0.00	29.847 
19:45	57.0	57.0	57.0	79	50.5	1	6	68	0.00	29.845 
19:50	57.2	57.2	57.2	79	50.7	1	4	90	0.00	29.845 
19:55	57.2	57.2	57.2	79	50.7	0	2	0	0.00	29.845 
20:00	57.0	57.0	57.0	79	50.5	1	3	22	0.00	29.853 
20:05	57.0	57.0	57.0	79	50.5	1	4	135	0.00	29.853 
20:10	57.0	57.0	57.0	79	50.5	0	4	90	0.00	29.853 
20:15	57.0	57.0	57.0	79	50.5	1	4	248	0.00	29.861 
20:20	57.2	57.2	57.2	79	50.7	1	3	90	0.00	29.861 
20:25	57.2	57.2	57.2	80	51.1	1	4	90	0.01	29.861 
20:30	57.0	57.0	57.0	81	51.2	1	5	90	0.00	29.846 
20:35	56.7	56.7	56.7	83	51.6	2	5	0	0.01	29.846 
20:40	56.5	56.5	56.5	85	52.0	2	6	112	0.00	29.846 
20:45	56.2	56.2	56.2	85	51.7	1	4	270	0.00	29.846 
20:50	55.9	55.9	55.9	86	51.8	0	3	90	0.01	29.846 
20:55	55.7	55.7	55.7	87	51.9	1	3	90	0.00	29.846 
21:00	55.6	55.6	55.6	88	52.1	1	4	112	0.00	29.845 
21:05	55.4	55.4	55.4	88	51.9	1	3	90	0.00	29.845 
21:10	55.3	55.3	55.3	88	51.8	1	3	90	0.00	29.845 
21:15	55.3	55.3	55.3	88	51.8	1	4	90	0.00	29.844 
21:20	55.1	55.1	55.1	88	51.6	1	4	90	0.00	29.844 
21:25	55.1	55.1	55.1	88	51.6	1	5	90	0.00	29.844 
21:30	55.1	55.1	55.1	88	51.6	1	5	90	0.00	29.838 
21:35	55.1	55.1	55.1	88	51.6	1	4	112	0.00	29.838 
21:40	55.1	55.1	55.1	88	51.6	1	4	68	0.01	29.838 
21:45	55.1	55.1	55.1	88	51.6	2	5	90	0.00	29.834 
21:50	55.1	55.1	55.1	88	51.6	2	5	112	0.00	29.834 
21:55	55.1	55.1	55.1	88	51.6	2	9	112	0.00	29.834 
22:00	55.1	55.1	55.1	88	51.6	1	4	112	0.00	29.827 
22:05	55.0	55.0	55.0	88	51.5	1	4	45	0.00	29.827 
22:10	55.0	55.0	55.0	88	51.5	1	5	68	0.00	29.827 
22:15	55.0	55.0	55.0	88	51.5	2	5	112	0.00	29.820 
22:20	55.1	55.1	55.1	88	51.6	2	6	90	0.00	29.820 
22:25	55.1	55.1	55.1	88	51.6	3	6	90	0.00	29.820 
22:30	55.1	55.1	55.1	88	51.6	2	5	90	0.00	29.813 
22:35	55.3	55.3	55.3	88	51.8	3	8	90	0.00	29.813 
22:40	55.3	55.3	55.3	88	51.8	2	6	45	0.00	29.813 
22:45	55.3	55.3	55.3	88	51.8	1	4	112	0.00	29.809 
22:50	55.4	55.4	55.4	88	51.9	2	6	68	0.00	29.809 
22:55	55.4	55.4	55.4	88	51.9	1	4	68	0.00	29.809 
23:00	55.4	55.4	55.4	88	51.9	1	4	68	0.00	29.808 
23:05	55.4	55.4	55.4	88	51.9	1	4	90	0.00	29.808 
23:10	55.3	55.3	55.3	88	51.8	0	2	90	0.00	29.808 
23:15	55.1	55.1	55.1	89	51.9	0	2	112	0.00	29.809 
23:20	55.0	55.0	55.0	89	51.8	0	2	112	0.00	29.809 
23:25	54.8	54.8	54.8	89	51.6	0	2	68	0.00	29.809 
23:30	54.7	54.7	54.7	89	51.5	1	3	90	0.00	29.811 
23:35	54.5	54.5	54.5	90	51.6	0	1	90	0.00	29.811 
23:40	54.4	54.4	54.4	90	51.5	0	2	90	0.00	29.811 
23:45	54.2	54.2	54.2	90	51.3	0	1	90	0.01	29.810 
23:50	53.9	53.9	53.9	91	51.3	0	1	90	0.00	29.810 
23:55	53.9	53.9	53.9	91	51.3	0	0	---	0.01	29.810 

CoCoRaHS
IN-AL-39
A2 Web Hosting
Creative Commons License
GoDaddy
search engine by freefind advanced

loaded 2018-11-17 18:18:56 • last modified 2010-11-18 10:43:29
Privacy PolicyDisclaimer
• wx.awcolley.com is powered by PmWiki v.2002016 •
• all content (unless otherwise noted) © 2018 A W Colley